ESNN/SDL METAR and TAF weather

Enter ICAO airport designator
Station Type Date Time Source
ESNN METAR 2021/05/07 01:50 UTC NOAA

ESNN 070150Z AUTO 32007KT 9999 OVC062/// M01/M04 Q1002


Station Type Date Time Source
ESNN Decoded METAR 2021/05/07 01:50 UTC NOAA

Sundsvall-Harnosand Flygplats, Sweden (ESNN) 62-32N 017-27E 10M
May 06, 2021 - 09:50 PM EDT / 2021.05.07 0150 UTC
Wind: from the NW (320 degrees) at 8 MPH (7 KT):0
Visibility: greater than 7 mile(s):0
Sky conditions: overcast
Temperature: 30 F (-1 C)
Windchill: 23 F (-5 C):1
Dew Point: 24 F (-4 C)
Relative Humidity: 80%
Pressure (altimeter): 29.59 in. Hg (1002 hPa)
ob: ESNN 070150Z AUTO 32007KT 9999 OVC062/// M01/M04 Q1002
cycle: 2

Station Type Date Time Source
ESNN TAF 2016/05/29 09:33 UTC NOAA

TAF TAF ESNN 290830Z 2909/3018 07006KT 9999 SCT045
BECMG 2913/2915 14010KT

Example: see airport list